createdAt,value
2022-07-31T00:00:26.616Z,8.77
2022-07-31T00:02:56.287Z,7.70
2022-07-31T00:05:25.435Z,8.40
2022-07-31T00:07:55.158Z,8.20
2022-07-31T00:10:23.383Z,8.33
2022-07-31T00:12:51.658Z,8.13
2022-07-31T00:15:20.201Z,7.93
2022-07-31T00:17:48.803Z,8.27
2022-07-31T00:20:19.727Z,7.80
2022-07-31T00:22:49.273Z,8.00
2022-07-31T00:25:18.814Z,8.30
2022-07-31T00:27:47.443Z,8.03
2022-07-31T00:30:17.014Z,8.33
2022-07-31T00:32:45.814Z,7.93
2022-07-31T00:35:15.107Z,8.70
2022-07-31T00:37:45.410Z,9.50
2022-07-31T00:40:17.438Z,8.83
2022-07-31T00:42:46.133Z,8.13
2022-07-31T00:45:15.126Z,8.30
2022-07-31T00:47:44.499Z,8.10
2022-07-31T00:50:13.386Z,8.80
2022-07-31T00:52:45.364Z,8.17
2022-07-31T00:55:13.587Z,9.00
2022-07-31T00:57:43.558Z,9.27
2022-07-31T01:00:13.923Z,9.20
2022-07-31T01:02:46.453Z,9.60
2022-07-31T01:05:15.707Z,8.93
2022-07-31T01:07:45.554Z,9.10
2022-07-31T01:10:19.018Z,10.20
2022-07-31T01:12:54.453Z,10.63
2022-07-31T01:15:23.830Z,10.83
2022-07-31T01:17:53.275Z,10.70
2022-07-31T01:20:26.948Z,10.97
2022-07-31T01:23:29.584Z,11.43
2022-07-31T01:26:37.599Z,12.00
2022-07-31T01:29:15.316Z,11.77
2022-07-31T01:31:48.988Z,12.03
2022-07-31T01:34:24.729Z,11.63
2022-07-31T01:37:02.202Z,12.57
2022-07-31T01:39:34.728Z,10.90
2022-07-31T01:42:07.510Z,11.73
2022-07-31T01:44:44.090Z,11.13
2022-07-31T01:47:15.339Z,10.73
2022-07-31T01:49:45.085Z,10.63
2022-07-31T01:52:15.096Z,11.37
2022-07-31T01:54:46.360Z,11.20
2022-07-31T01:57:18.613Z,10.57
2022-07-31T01:59:54.914Z,10.40
2022-07-31T02:02:45.689Z,11.33
2022-07-31T02:05:18.806Z,9.70
2022-07-31T02:07:49.070Z,10.27
2022-07-31T02:10:20.210Z,10.10
2022-07-31T02:12:50.554Z,12.13
2022-07-31T02:15:20.882Z,10.03
2022-07-31T02:17:51.331Z,11.40
2022-07-31T02:20:20.938Z,10.27
2022-07-31T02:22:50.934Z,10.53
2022-07-31T02:25:19.125Z,10.50
2022-07-31T02:27:58.250Z,10.07
2022-07-31T02:30:39.156Z,10.23
2022-07-31T02:33:11.406Z,11.53
2022-07-31T02:35:44.155Z,11.07
2022-07-31T02:38:23.045Z,10.57
2022-07-31T02:40:56.046Z,10.90
2022-07-31T02:43:25.822Z,10.40
2022-07-31T02:45:59.503Z,10.60
2022-07-31T02:48:28.536Z,10.73
2022-07-31T02:51:01.106Z,10.60
2022-07-31T02:53:31.116Z,10.93
2022-07-31T02:56:04.569Z,11.97
2022-07-31T02:58:35.004Z,11.60
2022-07-31T03:01:06.428Z,10.90
2022-07-31T03:03:35.966Z,11.13
2022-07-31T03:06:04.441Z,12.20
2022-07-31T03:08:32.614Z,11.23
2022-07-31T03:11:05.042Z,12.07
2022-07-31T03:13:36.536Z,12.53
2022-07-31T03:16:11.278Z,13.10
2022-07-31T03:18:40.858Z,11.50
2022-07-31T03:21:11.797Z,10.63
2022-07-31T03:23:40.155Z,11.60
2022-07-31T03:26:15.092Z,11.00
2022-07-31T03:28:43.770Z,12.00
2022-07-31T03:31:13.629Z,11.73
2022-07-31T03:33:42.659Z,11.10
2022-07-31T03:36:10.967Z,11.40
2022-07-31T03:38:43.141Z,10.93
2022-07-31T03:41:24.982Z,13.10
2022-07-31T03:43:54.881Z,12.07
2022-07-31T03:46:26.009Z,12.07
2022-07-31T03:48:54.484Z,12.33
2022-07-31T03:51:25.834Z,12.90
2022-07-31T03:53:54.286Z,12.17
2022-07-31T03:56:45.030Z,11.80
2022-07-31T03:59:15.840Z,11.90
2022-07-31T04:01:57.623Z,12.60
2022-07-31T04:04:50.831Z,12.43
2022-07-31T04:07:19.481Z,14.07
2022-07-31T04:09:47.724Z,13.73
2022-07-31T04:12:16.552Z,12.67
2022-07-31T04:14:44.679Z,12.90
2022-07-31T04:17:14.260Z,12.50
2022-07-31T04:19:42.451Z,13.37
2022-07-31T04:22:10.605Z,13.03
2022-07-31T04:24:39.418Z,12.33
2022-07-31T04:27:25.902Z,12.17
2022-07-31T04:29:58.801Z,11.67
2022-07-31T04:32:28.250Z,11.83
2022-07-31T04:35:02.913Z,12.00
2022-07-31T04:37:34.393Z,11.87
2022-07-31T04:40:03.965Z,12.47
2022-07-31T04:42:33.159Z,13.10
2022-07-31T04:45:02.083Z,13.13
2022-07-31T04:47:31.693Z,11.80
2022-07-31T04:50:00.079Z,12.17
2022-07-31T04:52:28.218Z,12.27
2022-07-31T04:55:01.963Z,11.53
2022-07-31T04:57:30.054Z,12.37
2022-07-31T05:00:00.849Z,12.90
2022-07-31T05:02:34.435Z,12.53
2022-07-31T05:05:02.882Z,12.17
2022-07-31T05:07:39.959Z,12.43
2022-07-31T05:10:34.351Z,11.70
2022-07-31T05:13:03.142Z,12.43
2022-07-31T05:15:32.973Z,11.77
2022-07-31T05:18:02.453Z,12.33
2022-07-31T05:20:36.409Z,13.40
2022-07-31T05:23:16.033Z,13.50
2022-07-31T05:25:57.694Z,11.50
2022-07-31T05:28:29.730Z,11.80
2022-07-31T05:30:59.180Z,10.73
2022-07-31T05:33:29.881Z,13.43
2022-07-31T05:35:58.723Z,13.50
2022-07-31T05:38:26.803Z,13.57
2022-07-31T05:41:15.122Z,12.90
2022-07-31T05:43:58.029Z,13.27
2022-07-31T05:46:30.548Z,15.80
2022-07-31T05:49:00.038Z,13.83
2022-07-31T05:51:28.274Z,12.20
2022-07-31T05:53:56.341Z,13.03
2022-07-31T05:56:43.054Z,12.57
2022-07-31T05:59:12.353Z,12.17
2022-07-31T06:01:41.625Z,12.70
2022-07-31T06:04:11.395Z,11.40
2022-07-31T06:06:45.522Z,14.03
2022-07-31T06:09:13.788Z,11.50
2022-07-31T06:11:45.086Z,12.33
2022-07-31T06:14:13.822Z,11.50
2022-07-31T06:17:00.406Z,12.13
2022-07-31T06:19:30.602Z,10.53
2022-07-31T06:21:58.679Z,10.10
2022-07-31T06:24:26.761Z,10.23
2022-07-31T06:26:58.694Z,9.27
2022-07-31T06:29:42.181Z,9.73
2022-07-31T06:32:13.266Z,9.43
2022-07-31T06:34:43.047Z,9.40
2022-07-31T06:37:11.806Z,8.30
2022-07-31T06:39:54.456Z,8.40
2022-07-31T06:42:48.672Z,8.03
2022-07-31T06:45:52.031Z,7.33
2022-07-31T06:48:40.987Z,7.07
2022-07-31T06:51:30.371Z,7.90
2022-07-31T06:54:00.206Z,6.80
2022-07-31T06:56:28.437Z,7.13
2022-07-31T06:58:56.909Z,5.90
2022-07-31T07:01:25.223Z,5.87
2022-07-31T07:03:53.546Z,6.00
2022-07-31T07:06:23.138Z,6.87
2022-07-31T07:08:51.399Z,7.27
2022-07-31T07:11:21.481Z,7.67
2022-07-31T07:13:49.803Z,7.77
2022-07-31T07:16:19.025Z,6.10
2022-07-31T07:18:47.215Z,6.27
2022-07-31T07:21:15.596Z,7.10
2022-07-31T07:23:45.279Z,5.17
2022-07-31T07:26:24.742Z,6.30
2022-07-31T07:28:52.891Z,5.47
2022-07-31T07:31:21.162Z,5.20
2022-07-31T07:33:51.507Z,5.13
2022-07-31T07:36:24.716Z,4.77
2022-07-31T07:39:06.820Z,3.80
2022-07-31T07:41:35.549Z,3.77
2022-07-31T07:44:03.832Z,4.77
2022-07-31T07:46:32.252Z,4.80
2022-07-31T07:49:05.650Z,4.40
2022-07-31T07:52:10.192Z,4.77
2022-07-31T07:54:43.147Z,3.93
2022-07-31T07:57:29.995Z,4.03
2022-07-31T08:00:09.077Z,3.60
2022-07-31T08:03:46.745Z,3.40
2022-07-31T08:05:42.409Z,3.33
2022-07-31T08:08:11.183Z,3.43
2022-07-31T08:11:03.502Z,3.03
2022-07-31T08:13:46.600Z,2.80
2022-07-31T08:16:20.826Z,2.93
2022-07-31T08:18:52.965Z,3.53
2022-07-31T08:21:21.804Z,2.77
2022-07-31T08:23:50.075Z,3.00
2022-07-31T08:26:19.503Z,3.20
2022-07-31T08:28:50.387Z,3.80
2022-07-31T08:31:20.990Z,3.03
2022-07-31T08:34:02.762Z,3.00
2022-07-31T08:36:31.713Z,3.13
2022-07-31T08:39:00.842Z,3.23
2022-07-31T08:41:52.014Z,2.80
2022-07-31T08:44:27.175Z,2.80
2022-07-31T08:47:00.463Z,2.63
2022-07-31T08:49:32.782Z,2.70
2022-07-31T08:52:03.119Z,2.83
2022-07-31T08:54:51.767Z,3.10
2022-07-31T08:57:22.469Z,3.00
2022-07-31T08:59:52.440Z,3.00
2022-07-31T09:02:20.614Z,2.90
2022-07-31T09:05:20.348Z,2.53
2022-07-31T09:07:48.494Z,2.47
2022-07-31T09:10:25.179Z,2.30
2022-07-31T09:12:55.911Z,2.27
2022-07-31T09:15:27.010Z,2.10
2022-07-31T09:17:56.051Z,2.03
2022-07-31T09:20:26.097Z,2.03
2022-07-31T09:23:06.737Z,2.03
2022-07-31T09:25:36.960Z,2.00
2022-07-31T09:28:08.054Z,2.50
2022-07-31T09:30:56.127Z,2.13
2022-07-31T09:33:48.329Z,2.23
2022-07-31T09:36:25.244Z,2.13
2022-07-31T09:39:04.257Z,2.10
2022-07-31T09:41:58.192Z,2.00
2022-07-31T09:44:47.022Z,2.07
2022-07-31T09:47:22.974Z,1.90
2022-07-31T09:49:56.566Z,1.80
2022-07-31T09:52:26.720Z,1.90
2022-07-31T09:55:15.653Z,1.83
2022-07-31T09:57:53.960Z,1.90
2022-07-31T10:00:25.235Z,1.80
2022-07-31T10:02:55.871Z,1.90
2022-07-31T10:05:27.139Z,1.63
2022-07-31T10:08:00.117Z,1.80
2022-07-31T10:11:00.911Z,1.50
2022-07-31T10:13:37.506Z,1.53
2022-07-31T10:16:12.400Z,1.63
2022-07-31T10:18:48.954Z,1.40
2022-07-31T10:21:39.406Z,1.90
2022-07-31T10:24:27.708Z,1.53
2022-07-31T10:27:01.205Z,1.70
2022-07-31T10:29:32.639Z,1.80
2022-07-31T10:32:04.772Z,1.80
2022-07-31T10:34:35.276Z,1.60
2022-07-31T10:37:31.178Z,1.30
2022-07-31T10:40:28.701Z,1.80
2022-07-31T10:43:19.938Z,1.80
2022-07-31T10:46:05.406Z,1.67
2022-07-31T10:48:54.108Z,1.70
2022-07-31T10:51:54.206Z,1.60
2022-07-31T10:54:49.624Z,1.77
2022-07-31T10:57:55.243Z,1.70
2022-07-31T11:00:45.833Z,1.70
2022-07-31T11:03:39.992Z,1.90
2022-07-31T11:06:26.957Z,1.60
2022-07-31T11:09:00.297Z,1.60
2022-07-31T11:11:48.947Z,2.00
2022-07-31T11:14:52.318Z,1.90
2022-07-31T11:18:24.023Z,3.10
2022-07-31T11:20:46.894Z,1.70
2022-07-31T11:23:17.848Z,2.23
2022-07-31T11:25:47.351Z,2.93
2022-07-31T11:28:19.082Z,2.67
2022-07-31T11:30:54.786Z,1.80
2022-07-31T11:33:41.667Z,2.00
2022-07-31T11:36:12.176Z,2.00
2022-07-31T11:38:45.401Z,1.87
2022-07-31T11:41:16.486Z,2.20
2022-07-31T11:43:45.843Z,1.93
2022-07-31T11:46:16.435Z,2.00
2022-07-31T11:48:45.730Z,2.10
2022-07-31T11:51:19.542Z,2.10
2022-07-31T11:53:51.179Z,2.03
2022-07-31T11:56:27.749Z,2.00
2022-07-31T11:58:57.402Z,2.40
2022-07-31T12:01:27.634Z,2.20
2022-07-31T12:03:56.439Z,2.27
2022-07-31T12:06:25.119Z,2.60
2022-07-31T12:08:54.845Z,2.60
2022-07-31T12:11:24.773Z,2.10
2022-07-31T12:13:52.887Z,2.60
2022-07-31T12:16:20.978Z,2.50
2022-07-31T12:18:50.779Z,2.30
2022-07-31T12:21:19.792Z,2.57
2022-07-31T12:23:50.239Z,2.70
2022-07-31T12:26:30.138Z,2.90
2022-07-31T12:29:00.163Z,2.50
2022-07-31T12:31:28.846Z,2.60
2022-07-31T12:33:57.103Z,2.53
2022-07-31T12:36:25.411Z,2.40
2022-07-31T12:39:01.460Z,2.30
2022-07-31T12:41:31.552Z,2.20
2022-07-31T12:44:11.005Z,2.60
2022-07-31T12:46:41.665Z,2.50
2022-07-31T12:49:10.022Z,2.40
2022-07-31T12:51:46.160Z,2.43
2022-07-31T12:54:15.556Z,2.60
2022-07-31T12:56:46.405Z,2.30
2022-07-31T12:59:14.897Z,2.37
2022-07-31T13:01:43.118Z,2.47
2022-07-31T13:04:18.881Z,2.30
2022-07-31T13:06:51.398Z,2.47
2022-07-31T13:09:20.150Z,2.07
2022-07-31T13:11:53.342Z,2.40
2022-07-31T13:14:25.542Z,2.40
2022-07-31T13:16:55.343Z,2.30
2022-07-31T13:19:23.407Z,2.70
2022-07-31T13:21:51.509Z,2.33
2022-07-31T13:24:20.315Z,2.80
2022-07-31T13:26:50.396Z,2.60
2022-07-31T13:29:19.129Z,2.60
2022-07-31T13:31:47.234Z,2.60
2022-07-31T13:34:15.379Z,2.50
2022-07-31T13:36:43.467Z,2.80
2022-07-31T13:39:12.064Z,2.73
2022-07-31T13:41:41.692Z,3.10
2022-07-31T13:44:11.341Z,2.80
2022-07-31T13:46:39.442Z,3.00
2022-07-31T13:49:10.426Z,3.30
2022-07-31T13:51:39.279Z,3.20
2022-07-31T13:54:07.434Z,2.60
2022-07-31T13:56:42.279Z,2.90
2022-07-31T13:59:13.843Z,2.53
2022-07-31T14:02:02.943Z,2.90
2022-07-31T14:04:32.316Z,3.60
2022-07-31T14:07:01.154Z,3.63
2022-07-31T14:09:29.367Z,3.90
2022-07-31T14:11:57.455Z,3.60
2022-07-31T14:14:27.062Z,3.77
2022-07-31T14:16:55.690Z,3.87
2022-07-31T14:19:23.766Z,3.37
2022-07-31T14:21:56.843Z,4.43
2022-07-31T14:24:26.252Z,3.50
2022-07-31T14:26:54.427Z,4.23
2022-07-31T14:29:22.506Z,4.43
2022-07-31T14:31:52.109Z,4.20
2022-07-31T14:34:20.254Z,4.70
2022-07-31T14:36:48.334Z,5.10
2022-07-31T14:39:16.535Z,4.70
2022-07-31T14:41:45.263Z,5.33
2022-07-31T14:44:18.341Z,5.63
2022-07-31T14:46:50.158Z,5.33
2022-07-31T14:49:19.630Z,6.00
2022-07-31T14:51:47.798Z,5.10
2022-07-31T14:54:15.910Z,6.93
2022-07-31T14:57:11.490Z,6.93
2022-07-31T14:59:32.471Z,6.53
2022-07-31T15:02:00.790Z,6.10
2022-07-31T15:04:30.401Z,7.20
2022-07-31T15:07:25.310Z,7.53
2022-07-31T15:09:47.835Z,6.77
2022-07-31T15:12:16.952Z,6.23
2022-07-31T15:14:45.330Z,7.80
2022-07-31T15:17:13.484Z,7.83
2022-07-31T15:19:42.956Z,8.30
2022-07-31T15:22:16.344Z,7.60
2022-07-31T15:24:48.486Z,8.20
2022-07-31T15:27:18.870Z,9.47
2022-07-31T15:30:04.759Z,9.73
2022-07-31T15:32:34.865Z,9.57
2022-07-31T15:35:04.700Z,8.43
2022-07-31T15:37:35.278Z,9.77
2022-07-31T15:40:05.465Z,10.47
2022-07-31T15:42:33.782Z,10.30
2022-07-31T15:45:02.003Z,10.07
2022-07-31T15:47:30.265Z,9.97
2022-07-31T15:49:58.691Z,11.10
2022-07-31T15:52:28.302Z,9.50
2022-07-31T15:54:56.460Z,9.43
2022-07-31T15:57:25.130Z,10.50
2022-07-31T15:59:55.257Z,11.07
2022-07-31T16:02:24.898Z,10.60
2022-07-31T16:04:57.469Z,11.17
2022-07-31T16:08:28.601Z,10.33
2022-07-31T16:10:18.436Z,10.63
2022-07-31T16:12:47.142Z,9.93
2022-07-31T16:15:16.494Z,9.93
2022-07-31T16:17:45.294Z,9.03
2022-07-31T16:20:20.638Z,9.30
2022-07-31T16:22:58.764Z,8.83
2022-07-31T16:25:28.164Z,8.67
2022-07-31T16:27:56.969Z,9.43
2022-07-31T16:30:27.283Z,8.67
2022-07-31T16:32:55.675Z,7.97
2022-07-31T16:35:26.087Z,7.77
2022-07-31T16:37:55.899Z,8.17
2022-07-31T16:40:30.417Z,7.50
2022-07-31T16:43:03.004Z,7.17
2022-07-31T16:45:50.385Z,6.87
2022-07-31T16:48:18.613Z,7.90
2022-07-31T16:50:52.948Z,7.90
2022-07-31T16:54:10.637Z,7.53
2022-07-31T16:56:13.621Z,7.83
2022-07-31T16:58:43.951Z,7.97
2022-07-31T17:01:57.583Z,7.63
2022-07-31T17:04:04.064Z,7.80
2022-07-31T17:06:36.038Z,7.10
2022-07-31T17:09:16.868Z,6.80
2022-07-31T17:11:48.665Z,7.20
2022-07-31T17:14:17.224Z,8.07
2022-07-31T17:16:48.086Z,7.80
2022-07-31T17:19:41.753Z,8.27
2022-07-31T17:22:07.277Z,7.80
2022-07-31T17:24:37.980Z,8.33
2022-07-31T17:27:08.542Z,8.47
2022-07-31T17:29:37.840Z,7.87
2022-07-31T17:32:06.627Z,7.67
2022-07-31T17:34:35.916Z,8.10
2022-07-31T17:37:04.840Z,7.70
2022-07-31T17:39:33.467Z,7.80
2022-07-31T17:42:03.061Z,6.57
2022-07-31T17:44:31.584Z,6.87
2022-07-31T17:46:59.990Z,6.73
2022-07-31T17:49:32.101Z,6.47
2022-07-31T17:52:00.639Z,6.63
2022-07-31T17:54:30.269Z,6.30
2022-07-31T17:56:58.942Z,6.43
2022-07-31T17:59:29.125Z,6.27
2022-07-31T18:02:00.183Z,6.17
2022-07-31T18:04:29.029Z,6.83
2022-07-31T18:06:57.489Z,6.53
2022-07-31T18:09:26.184Z,7.13
2022-07-31T18:11:55.631Z,7.67
2022-07-31T18:14:24.439Z,7.97
2022-07-31T18:16:54.628Z,7.53
2022-07-31T18:19:23.302Z,7.93
2022-07-31T18:21:52.118Z,7.73
2022-07-31T18:24:20.375Z,7.87
2022-07-31T18:26:49.347Z,8.50
2022-07-31T18:29:17.766Z,8.63
2022-07-31T18:31:46.297Z,8.67
2022-07-31T18:34:16.211Z,9.83
2022-07-31T18:36:44.458Z,9.53
2022-07-31T18:39:12.960Z,9.60
2022-07-31T18:41:46.850Z,9.33
2022-07-31T18:44:17.073Z,10.33
2022-07-31T18:46:45.186Z,10.23
2022-07-31T18:51:02.914Z,11.20
2022-07-31T18:52:03.721Z,10.97
2022-07-31T18:54:32.165Z,11.20
2022-07-31T18:57:00.290Z,11.20
2022-07-31T18:59:28.358Z,11.17
2022-07-31T19:01:56.748Z,10.83
2022-07-31T19:04:26.042Z,11.40
2022-07-31T19:06:54.655Z,12.77
2022-07-31T19:09:25.266Z,12.03
2022-07-31T19:11:58.846Z,11.23
2022-07-31T19:14:27.323Z,11.90
2022-07-31T19:16:57.896Z,12.23
2022-07-31T19:19:28.999Z,11.73
2022-07-31T19:22:13.732Z,11.60
2022-07-31T19:24:43.310Z,10.70
2022-07-31T19:27:11.448Z,11.60
2022-07-31T19:29:39.763Z,11.20
2022-07-31T19:32:08.471Z,11.53
2022-07-31T19:34:36.789Z,11.23
2022-07-31T19:37:05.170Z,11.83
2022-07-31T19:39:36.878Z,11.97
2022-07-31T19:42:11.740Z,12.50
2022-07-31T19:44:49.759Z,13.30
2022-07-31T19:47:17.889Z,12.27
2022-07-31T19:49:48.284Z,13.10
2022-07-31T19:52:16.548Z,12.17
2022-07-31T19:54:44.677Z,12.77
2022-07-31T19:57:14.132Z,12.77
2022-07-31T19:59:43.089Z,12.83
2022-07-31T20:02:16.475Z,11.87
2022-07-31T20:04:45.005Z,13.10
2022-07-31T20:07:13.165Z,13.10
2022-07-31T20:09:41.299Z,13.33
2022-07-31T20:12:10.058Z,13.63
2022-07-31T20:14:39.533Z,13.97
2022-07-31T20:17:07.848Z,12.37
2022-07-31T20:19:36.046Z,13.60
2022-07-31T20:22:24.671Z,13.80
2022-07-31T20:24:53.023Z,14.43
2022-07-31T20:27:21.233Z,15.63
2022-07-31T20:29:50.977Z,15.00
2022-07-31T20:32:19.138Z,15.20
2022-07-31T20:34:49.913Z,14.80
2022-07-31T20:37:18.085Z,13.83
2022-07-31T20:39:46.211Z,15.57
2022-07-31T20:42:14.594Z,15.30
2022-07-31T20:44:44.513Z,15.10
2022-07-31T20:47:14.552Z,17.00
2022-07-31T20:49:42.789Z,15.30
2022-07-31T20:52:10.936Z,16.13
2022-07-31T20:54:39.249Z,15.63
2022-07-31T20:57:07.430Z,16.37
2022-07-31T20:59:35.558Z,16.03
2022-07-31T21:02:03.885Z,15.60
2022-07-31T21:04:33.628Z,16.00
2022-07-31T21:07:01.754Z,15.67
2022-07-31T21:09:31.596Z,17.30
2022-07-31T21:11:59.713Z,16.40
2022-07-31T21:14:27.793Z,17.10
2022-07-31T21:16:55.945Z,15.60
2022-07-31T21:19:24.147Z,18.23
2022-07-31T21:21:53.884Z,16.80
2022-07-31T21:24:22.444Z,16.63
2022-07-31T21:26:58.190Z,15.97
2022-07-31T21:29:26.775Z,15.47
2022-07-31T21:31:57.670Z,15.77
2022-07-31T21:34:26.609Z,15.73
2022-07-31T21:36:57.033Z,15.67
2022-07-31T21:39:29.194Z,18.50
2022-07-31T21:41:58.090Z,19.87
2022-07-31T21:44:26.881Z,16.20
2022-07-31T21:46:56.340Z,15.70
2022-07-31T21:49:26.104Z,14.00
2022-07-31T21:51:56.187Z,15.57
2022-07-31T21:54:24.308Z,14.73
2022-07-31T21:56:52.809Z,14.93
2022-07-31T21:59:21.178Z,14.37
2022-07-31T22:01:57.512Z,12.80
2022-07-31T22:04:29.862Z,13.27
2022-07-31T22:07:21.583Z,13.37
2022-07-31T22:09:49.712Z,12.73
2022-07-31T22:12:17.812Z,12.63
2022-07-31T22:14:46.089Z,11.83
2022-07-31T22:17:14.194Z,12.70
2022-07-31T22:19:47.188Z,11.03
2022-07-31T22:22:17.802Z,10.63
2022-07-31T22:24:46.397Z,11.13
2022-07-31T22:27:32.708Z,10.50
2022-07-31T22:30:01.635Z,9.97
2022-07-31T22:32:30.082Z,10.60
2022-07-31T22:34:58.363Z,10.60
2022-07-31T22:37:28.656Z,9.93
2022-07-31T22:39:58.564Z,10.43
2022-07-31T22:42:27.765Z,9.57
2022-07-31T22:44:56.095Z,9.10
2022-07-31T22:47:25.304Z,9.10
2022-07-31T22:49:53.887Z,8.90
2022-07-31T22:52:22.535Z,9.83
2022-07-31T22:55:02.917Z,9.37
2022-07-31T22:57:31.081Z,9.80
2022-07-31T22:59:59.203Z,10.80
2022-07-31T23:02:27.388Z,8.80
2022-07-31T23:04:55.548Z,9.60
2022-07-31T23:07:23.617Z,10.67
2022-07-31T23:09:51.680Z,10.17
2022-07-31T23:12:21.117Z,10.47
2022-07-31T23:14:49.248Z,9.33
2022-07-31T23:17:23.054Z,10.10
2022-07-31T23:19:53.944Z,10.50
2022-07-31T23:22:30.786Z,10.20
2022-07-31T23:25:02.237Z,10.13
2022-07-31T23:27:31.813Z,11.80
2022-07-31T23:29:59.960Z,9.70
2022-07-31T23:32:28.723Z,11.23
2022-07-31T23:34:56.998Z,10.67
2022-07-31T23:37:25.088Z,10.53
2022-07-31T23:39:53.151Z,10.47
2022-07-31T23:42:39.345Z,10.37
2022-07-31T23:45:12.368Z,10.43
2022-07-31T23:47:44.778Z,8.97
2022-07-31T23:50:14.854Z,10.57
2022-07-31T23:52:43.135Z,10.67
2022-07-31T23:55:11.288Z,9.70
2022-07-31T23:57:39.371Z,10.43
